Página principal
METAR-TAF:

METAR-TAF

Aeroportos :

Aeroporto João Paulo II

Ponta Delgada, Açores, Portugal

latitude: 37-44N, longitude: 025-42W, altura: 71 m

Observação actual do tempo

O boletim foi feito há 25 minutos, às 14:00 UTC
Vento 14 kt de nordeste, variando entre nor-nordeste e este
Temperatura 26°C
Humidade 61%
Pressão 1023 hPa
Visibilidade 10 km ou mais
Poucas nuvensa uma altura de 1600 ft
Nuvens dispersasa uma altura de 2500 ft

METAR: LPPD 201400Z 05014KT 020V090 9999 FEW016 SCT025 26/18 Q1023

Hora: 14:25 (14:25 UTC)

Previsão

O boletim foi feito há 3 horas e 25 minutos, às 11:00 UTC
Previsão válida de 20 às 12 UTC a 21 às 12 UTC
Vento 10 kt de nor-nordeste
Visibilidade 10 km ou mais
Nuvens dispersasa uma altura de 2300 ft
Temporariamente
de 20 às 12 UTC a 21 às 12 UTC
Poucas nuvensa uma altura de 2000 ft
Nuvens fragmentadasa uma altura de 3500 ft

TAF: LPPD 201100Z 2012/2112 03010KT 9999 SCT023 TEMPO 2012/2112 FEW020 BKN035

Observações e previsões do tempo de mais de 4000 aeroportos (mensagens METAR e TAF).

As estações disponíveis são os pontos amarelos e vermelhos sobre o mapa.

Mova o rato sobre o mapa para ver o nome da estação.

Depois clique no ponto para visualizar as observações e previsões meteorológicas.

Para alterar o mapa : clique nos botões verdes com uma cruz preta para aumentar o zoom; no botão verde com uma pitada de zoom; ou nas setas verdes para mapas adjacentes.


METAR-TAF: